PTAO2: Poteau River, Poteau, OK

                                SHEF ID:       PTAO2     Poteau River at Poteau, OK
STATION TYPE:
Regulating: Stage = 20.00, Flow = 7395

PRECIP STAGE RIV-FLOW VOLTAGE BAT-LOAD
in ft cfs volt volt
Ccp-Rev Ccp-Rev Ccp-Rev Ccp-Rev Ccp-Rev
(America/Chicago)
07/25 00:00 0.00 5.51 1279 12.81 12.21
07/25 01:00 0.00 5.52 1283 12.80 12.14
07/25 02:00 0.00 5.51 1279 12.80 12.11
07/25 03:00 0.00 5.51 1279 12.78 12.10
07/25 04:00 0.00 5.52 1283 12.78 12.09
07/25 05:00 0.00 5.52 1283 12.77 12.17
07/25 06:00 0.00 5.51 1279 12.77 12.14
07/25 07:00 0.00 5.51 1279 12.84 12.15
07/25 08:00 0.00 5.50 1276 13.31 12.48
07/25 09:00 0.00 5.51 1279 13.70 12.70
07/25 10:00 0.00 5.49 1273 13.53 12.77
07/25 11:00 0.00 5.50 1276 13.40 12.63
07/25 12:00 0.00 5.49 1273 13.05 12.36
07/25 13:00 0.00 5.48 1269 12.99 12.27
07/25 14:00 0.00 5.49 1273 12.96 12.27
07/25 15:00 0.00 5.49 1273 12.96 12.21
07/25 16:00 0.00 5.49 1273 12.94 12.22
07/25 17:00 0.00 5.48 1269 12.93 12.23
07/25 18:00 0.00 5.47 1266 12.91 12.21
07/25 19:00 0.00 5.38 1236 12.93 12.21
07/25 20:00 0.00 5.23 1187 12.99 12.26
07/25 21:00 0.00 4.98 1105 12.87 12.21
07/25 22:00 0.00 4.69 1007 12.85 12.21
07/25 23:00 0.00 4.38 898 12.83 12.17
Data processed at Sat 26Jul2025 04:48 GMT

Parsing this webpage?

Checkout our new Data API! CWMSDataAPI (CDA)

Timeseries IDs (TSIDs)

TSIDs used from left to right in the data table
POTE.Precip-Inc.Total.1Hour.1Hour.Ccp-Rev
POTE.Stage.Inst.1Hour.0.Ccp-Rev
POTE.Flow.Inst.1Hour.0.Ccp-Rev
POTE.Volt-Battery.Inst.1Hour.0.Ccp-Rev
POTE.Volt-Battery Load.Inst.1Hour.0.Ccp-Rev

                            

All information presented herein is the property of the government of the United States of America and may be revised or deleted at any time without prior notice. Dissemination of this information without the expressed written consent of the Public Affairs Office, Tulsa District U.S. Army Corps of Engineers is strictly prohibited. These data are gathered electronically and, as presented, have NOT undergone any form of quality control. These data are NOT guaranteed to be valid or correct.